Time;durP1;ratioP1;P1;durP2;ratioP2;P2;SDS_P1;SDS_P2;PMS_P1;PMS_P2;Temp;Humidity;BMP_temperature;BMP_pressure;BME280_temperature;BME280_humidity;BME280_pressure;Samples;Min_cycle;Max_cycle;Signal;HPM_P1;HPM_P2
2021/10/18 00:02:22;;;;;;;8.27;5.93;;;10.90;60.80;;;;;;4997762;28;20022;-51
2021/10/18 00:04:48;;;;;;;10.05;7.18;;;10.80;60.70;;;;;;4997333;28;20050;-51
2021/10/18 00:07:15;;;;;;;9.90;6.63;;;10.80;60.90;;;;;;4997309;28;20034;-50
2021/10/18 00:09:41;;;;;;;9.55;6.68;;;10.80;61.00;;;;;;4997067;28;20034;-51
2021/10/18 00:12:07;;;;;;;9.88;6.68;;;10.70;61.00;;;;;;4997233;28;20034;-51
2021/10/18 00:14:33;;;;;;;8.68;6.60;;;10.70;61.00;;;;;;4996986;28;20446;-51
2021/10/18 00:16:59;;;;;;;9.38;6.10;;;10.70;61.00;;;;;;4997184;28;20057;-51
2021/10/18 00:19:25;;;;;;;9.20;6.22;;;10.70;61.00;;;;;;4997110;28;20050;-51
2021/10/18 00:21:51;;;;;;;10.63;6.68;;;10.60;61.00;;;;;;4997081;28;20124;-51
2021/10/18 00:24:17;;;;;;;8.30;6.40;;;10.60;61.00;;;;;;4997296;28;20037;-51
2021/10/18 00:26:42;;;;;;;9.25;7.10;;;10.60;61.00;;;;;;4995081;28;20033;-50
2021/10/18 00:29:09;;;;;;;8.98;5.80;;;10.50;61.00;;;;;;4997171;28;20027;-50
2021/10/18 00:31:35;;;;;;;9.18;6.15;;;10.50;61.20;;;;;;4996970;28;20044;-51
2021/10/18 00:34:00;;;;;;;7.85;5.35;;;10.50;60.90;;;;;;4996854;28;20089;-51
2021/10/18 00:36:26;;;;;;;8.63;5.82;;;10.60;60.90;;;;;;4996835;28;20081;-51
2021/10/18 00:38:52;;;;;;;9.27;5.60;;;10.60;60.80;;;;;;4996655;28;20418;-51
2021/10/18 00:41:18;;;;;;;7.60;6.13;;;10.60;60.80;;;;;;4996857;28;20030;-51
2021/10/18 00:43:49;;;;;;;7.53;5.07;;;10.70;60.70;;;;;;4996701;28;20054;-51
2021/10/18 00:46:20;;;;;;;9.02;5.78;;;10.70;60.70;;;;;;4997040;28;20088;-50
2021/10/18 00:48:46;;;;;;;7.28;5.68;;;10.70;60.50;;;;;;4996613;28;20030;-50
2021/10/18 00:51:12;;;;;;;7.30;5.07;;;10.70;60.60;;;;;;4996698;28;20022;-51
2021/10/18 00:53:39;;;;;;;6.45;4.57;;;10.80;60.40;;;;;;4996726;28;20037;-51
2021/10/18 00:56:05;;;;;;;9.05;6.03;;;10.80;60.20;;;;;;4996221;28;20054;-51
2021/10/18 00:58:31;;;;;;;9.40;6.53;;;10.90;60.10;;;;;;4996431;28;20062;-51
2021/10/18 01:00:57;;;;;;;7.53;5.22;;;10.90;60.00;;;;;;4996160;28;20023;-51
2021/10/18 01:03:24;;;;;;;8.77;7.22;;;10.90;59.90;;;;;;4996512;28;20497;-52
2021/10/18 01:05:51;;;;;;;8.52;5.45;;;11.00;60.00;;;;;;4996158;28;20030;-51
2021/10/18 01:08:16;;;;;;;6.50;5.18;;;11.00;59.70;;;;;;4995861;28;20035;-51
2021/10/18 01:10:42;;;;;;;8.95;5.40;;;11.10;59.50;;;;;;4996278;28;20458;-51
2021/10/18 01:13:08;;;;;;;7.38;5.32;;;11.10;59.20;;;;;;4996110;28;20080;-51
2021/10/18 01:15:33;;;;;;;9.02;4.90;;;11.10;59.00;;;;;;4996311;28;20030;-50
2021/10/18 01:17:59;;;;;;;7.68;4.88;;;11.10;59.00;;;;;;4995906;28;20026;-50
2021/10/18 01:20:32;;;;;;;7.18;4.60;;;11.10;58.90;;;;;;4995830;28;20031;-53
2021/10/18 01:22:59;;;;;;;7.13;4.75;;;11.10;58.80;;;;;;4995997;28;20502;-51
2021/10/18 01:25:25;;;;;;;9.35;6.13;;;11.10;58.80;;;;;;4995600;28;20031;-51
2021/10/18 01:27:51;;;;;;;7.03;5.68;;;11.10;58.80;;;;;;4995125;28;20040;-50
2021/10/18 01:30:18;;;;;;;7.72;5.10;;;11.10;58.80;;;;;;4995735;28;20034;-51
2021/10/18 01:32:44;;;;;;;7.40;5.05;;;11.10;58.70;;;;;;4995607;28;20100;-51
2021/10/18 01:35:10;;;;;;;7.68;5.55;;;11.10;58.80;;;;;;4995696;28;20062;-51
2021/10/18 01:37:37;;;;;;;7.88;5.63;;;11.10;58.90;;;;;;4995313;28;20030;-51
2021/10/18 01:40:12;;;;;;;8.55;5.85;;;11.10;59.00;;;;;;4995023;28;20050;-51
2021/10/18 01:42:38;;;;;;;8.45;5.28;;;11.10;59.00;;;;;;4995084;28;20030;-51
2021/10/18 01:45:06;;;;;;;8.45;5.05;;;11.10;59.10;;;;;;4995513;28;20102;-51
2021/10/18 01:47:33;;;;;;;6.80;4.53;;;11.10;59.10;;;;;;4995458;28;20047;-51
2021/10/18 01:49:58;;;;;;;9.02;5.45;;;11.10;59.10;;;;;;4995480;28;20029;-51
2021/10/18 01:52:24;;;;;;;7.40;5.97;;;11.10;59.10;;;;;;4995536;28;20026;-51
2021/10/18 01:54:50;;;;;;;7.97;6.50;;;11.10;59.20;;;;;;4995293;28;20030;-51
2021/10/18 01:57:16;;;;;;;7.68;6.18;;;11.10;59.20;;;;;;4995302;28;20022;-51
2021/10/18 01:59:42;;;;;;;8.32;6.00;;;11.00;59.30;;;;;;4995104;28;20146;-51
2021/10/18 02:02:08;;;;;;;7.38;5.35;;;11.00;59.40;;;;;;4995369;28;20022;-51
2021/10/18 02:04:34;;;;;;;10.52;6.63;;;11.00;59.50;;;;;;4995219;28;20112;-51
2021/10/18 02:07:00;;;;;;;12.52;7.10;;;11.00;59.60;;;;;;4995159;28;20030;-51
2021/10/18 02:09:25;;;;;;;9.02;5.63;;;10.90;59.50;;;;;;4995037;28;20026;-51
2021/10/18 02:11:51;;;;;;;10.38;7.40;;;11.00;59.60;;;;;;4994877;28;20101;-51
2021/10/18 02:14:17;;;;;;;9.10;6.90;;;10.90;59.60;;;;;;4995150;28;20027;-50
2021/10/18 02:16:43;;;;;;;9.80;7.45;;;10.90;59.60;;;;;;4995032;28;20038;-51
2021/10/18 02:19:08;;;;;;;9.13;5.90;;;10.90;59.70;;;;;;4994867;28;20478;-51
2021/10/18 02:21:35;;;;;;;12.45;6.68;;;10.90;59.80;;;;;;4995126;28;20023;-51
2021/10/18 02:24:01;;;;;;;7.05;5.63;;;10.90;59.80;;;;;;4995072;28;20060;-51
2021/10/18 02:26:26;;;;;;;8.65;5.85;;;10.90;59.80;;;;;;4994536;28;20457;-51
2021/10/18 02:28:52;;;;;;;9.35;6.10;;;10.90;59.80;;;;;;4994491;28;20513;-51
2021/10/18 02:31:18;;;;;;;8.27;6.32;;;10.90;59.90;;;;;;4993900;28;20034;-51
2021/10/18 02:33:43;;;;;;;9.23;6.60;;;10.90;59.80;;;;;;4994083;28;20058;-51
2021/10/18 02:36:09;;;;;;;11.85;5.95;;;10.90;59.90;;;;;;4994554;28;20027;-50
2021/10/18 02:38:35;;;;;;;11.52;6.72;;;10.90;59.90;;;;;;4995050;28;20027;-51
2021/10/18 02:41:01;;;;;;;9.75;7.10;;;10.90;59.90;;;;;;5014281;28;20041;-51
2021/10/18 02:43:27;;;;;;;8.45;5.85;;;10.90;59.90;;;;;;5014193;28;20370;-51
2021/10/18 02:45:53;;;;;;;12.10;7.47;;;10.90;59.90;;;;;;5014064;28;20462;-51
2021/10/18 02:48:18;;;;;;;10.30;7.15;;;10.90;59.90;;;;;;5014300;28;20025;-51
2021/10/18 02:50:44;;;;;;;7.97;5.55;;;10.80;59.80;;;;;;5013202;28;20036;-51
2021/10/18 02:53:10;;;;;;;10.50;7.55;;;10.80;59.90;;;;;;5014123;28;20177;-51
2021/10/18 02:55:35;;;;;;;11.25;7.00;;;10.80;59.90;;;;;;5013941;28;20030;-51
2021/10/18 02:58:01;;;;;;;8.10;6.47;;;10.80;59.80;;;;;;5014002;28;20022;-50
2021/10/18 03:00:27;;;;;;;9.07;6.28;;;10.80;59.80;;;;;;5014163;28;20448;-52
2021/10/18 03:02:53;;;;;;;10.05;6.55;;;10.80;59.90;;;;;;4996295;28;20524;-51
2021/10/18 03:05:18;;;;;;;7.38;5.20;;;10.80;59.80;;;;;;5013667;28;20058;-53
2021/10/18 03:07:44;;;;;;;8.30;5.93;;;10.80;60.00;;;;;;5013902;28;20033;-51
2021/10/18 03:10:10;;;;;;;7.72;6.45;;;10.80;59.80;;;;;;5013773;28;20041;-51
2021/10/18 03:12:36;;;;;;;7.63;5.78;;;10.90;59.90;;;;;;5013936;28;20402;-52
2021/10/18 03:15:03;;;;;;;9.07;5.95;;;10.90;59.80;;;;;;5014127;28;20030;-51
2021/10/18 03:17:29;;;;;;;9.20;6.93;;;10.90;59.80;;;;;;5013770;28;20116;-51
2021/10/18 03:19:55;;;;;;;7.47;6.43;;;10.90;59.80;;;;;;5013811;28;20490;-52
2021/10/18 03:22:20;;;;;;;10.10;6.28;;;10.90;59.80;;;;;;5014108;28;20057;-50
2021/10/18 03:24:46;;;;;;;10.02;6.60;;;10.90;59.80;;;;;;5013866;28;20033;-50
2021/10/18 03:27:12;;;;;;;7.15;5.68;;;10.90;59.70;;;;;;5013546;28;20458;-50
2021/10/18 03:29:37;;;;;;;8.10;5.40;;;10.90;59.60;;;;;;5013560;28;20026;-50
2021/10/18 03:32:03;;;;;;;9.52;6.55;;;10.90;59.70;;;;;;5013694;28;20035;-50
2021/10/18 03:34:29;;;;;;;9.48;5.93;;;10.90;59.80;;;;;;5013772;28;20461;-51
2021/10/18 03:36:54;;;;;;;8.30;6.75;;;10.90;59.70;;;;;;5013461;28;20534;-50
2021/10/18 03:39:20;;;;;;;11.45;6.72;;;10.90;59.70;;;;;;5006584;28;20077;-50
2021/10/18 03:41:45;;;;;;;11.35;7.35;;;10.90;59.60;;;;;;4993329;28;20054;-51
2021/10/18 03:44:11;;;;;;;9.75;5.88;;;10.90;59.60;;;;;;4993935;28;20033;-50
2021/10/18 03:46:37;;;;;;;8.38;6.38;;;10.80;59.60;;;;;;4994079;28;20043;-50
2021/10/18 03:49:03;;;;;;;10.70;6.40;;;10.90;59.80;;;;;;4993886;28;20030;-50
2021/10/18 03:51:29;;;;;;;8.23;5.80;;;10.90;59.80;;;;;;4993804;28;20034;-51
2021/10/18 03:53:54;;;;;;;7.97;6.78;;;10.90;59.90;;;;;;4994173;28;20113;-52
2021/10/18 03:56:20;;;;;;;8.35;7.00;;;10.90;59.80;;;;;;4993548;28;20098;-50
2021/10/18 03:58:46;;;;;;;10.45;7.10;;;10.90;59.70;;;;;;4993864;28;20022;-50
2021/10/18 04:01:12;;;;;;;11.20;7.20;;;10.90;59.70;;;;;;4995160;28;20045;-50
2021/10/18 04:03:38;;;;;;;10.50;7.78;;;10.90;59.50;;;;;;4997743;28;20482;-50
2021/10/18 04:06:04;;;;;;;9.20;6.10;;;10.80;59.60;;;;;;4997349;28;20054;-50
2021/10/18 04:08:33;;;;;;;10.57;7.13;;;10.90;59.70;;;;;;4996989;28;20026;-51
2021/10/18 04:11:00;;;;;;;10.02;7.15;;;10.90;59.70;;;;;;4997414;28;20037;-50
2021/10/18 04:13:26;;;;;;;10.43;7.03;;;10.90;59.70;;;;;;4997444;28;20034;-50
2021/10/18 04:15:52;;;;;;;8.70;6.68;;;10.90;59.80;;;;;;4997303;28;20027;-50
2021/10/18 04:18:18;;;;;;;8.00;6.82;;;10.90;59.70;;;;;;4997139;28;20026;-50
2021/10/18 04:20:45;;;;;;;9.32;5.70;;;10.90;59.70;;;;;;4997019;28;20037;-50
2021/10/18 04:23:10;;;;;;;9.05;6.93;;;10.90;59.70;;;;;;4997087;28;20030;-50
2021/10/18 04:25:36;;;;;;;10.60;7.05;;;10.90;59.60;;;;;;4997041;28;20037;-50
2021/10/18 04:28:02;;;;;;;8.52;6.95;;;10.90;59.60;;;;;;4996765;28;20035;-50
2021/10/18 04:30:28;;;;;;;11.00;7.80;;;10.90;59.70;;;;;;4996878;28;20069;-50
2021/10/18 04:32:54;;;;;;;8.35;6.45;;;10.90;59.60;;;;;;4997128;28;20081;-52
2021/10/18 04:35:20;;;;;;;11.43;7.57;;;10.90;59.60;;;;;;4996812;28;20041;-50
2021/10/18 04:37:46;;;;;;;10.45;6.35;;;10.90;59.50;;;;;;4996789;28;20022;-50
2021/10/18 04:40:12;;;;;;;11.65;8.00;;;10.90;59.50;;;;;;4996471;28;20073;-50
2021/10/18 04:42:38;;;;;;;9.50;7.72;;;10.90;59.50;;;;;;4996856;28;20110;-50
2021/10/18 04:45:05;;;;;;;10.52;7.20;;;10.90;59.50;;;;;;4996663;28;20102;-50
2021/10/18 04:47:30;;;;;;;11.25;7.28;;;10.90;59.50;;;;;;4996645;28;20030;-50
2021/10/18 04:49:56;;;;;;;10.68;8.23;;;10.90;59.50;;;;;;4996585;28;20037;-50
2021/10/18 04:52:22;;;;;;;11.50;7.80;;;10.90;59.60;;;;;;4996837;28;20027;-50
2021/10/18 04:54:47;;;;;;;11.10;8.07;;;10.90;59.50;;;;;;4996566;28;20084;-50
2021/10/18 04:57:13;;;;;;;8.90;7.05;;;10.90;59.50;;;;;;4996465;28;20068;-53
2021/10/18 04:59:38;;;;;;;10.75;7.57;;;10.90;59.50;;;;;;4996441;28;20097;-50
2021/10/18 05:02:04;;;;;;;12.63;8.32;;;10.90;59.60;;;;;;4996185;28;20033;-50
2021/10/18 05:04:30;;;;;;;12.63;8.02;;;10.90;59.60;;;;;;4996181;28;20031;-50
2021/10/18 05:06:56;;;;;;;12.18;7.90;;;10.90;59.70;;;;;;4996378;28;20072;-50
2021/10/18 05:09:21;;;;;;;12.07;7.53;;;10.90;59.70;;;;;;4993745;28;20462;-50
2021/10/18 05:11:47;;;;;;;10.27;7.45;;;10.90;59.70;;;;;;4993231;28;20040;-52
2021/10/18 05:14:12;;;;;;;14.65;8.48;;;10.80;59.60;;;;;;4991879;28;20056;-52
2021/10/18 05:16:39;;;;;;;12.35;8.38;;;10.90;59.60;;;;;;4995564;28;20037;-49
2021/10/18 05:19:05;;;;;;;9.15;7.47;;;10.80;59.50;;;;;;4990989;28;20057;-49
2021/10/18 05:21:31;;;;;;;12.68;7.68;;;10.80;59.60;;;;;;4992883;28;20112;-49
2021/10/18 05:23:56;;;;;;;10.20;6.72;;;10.80;59.50;;;;;;4987960;28;20550;-49
2021/10/18 05:26:22;;;;;;;11.85;7.75;;;10.80;59.60;;;;;;4985278;28;20046;-52
2021/10/18 05:28:48;;;;;;;11.07;7.55;;;10.80;59.70;;;;;;4982615;28;20030;-51
2021/10/18 05:31:13;;;;;;;11.13;7.38;;;10.80;59.60;;;;;;4987767;28;20035;-53
2021/10/18 05:33:39;;;;;;;10.95;7.10;;;10.90;59.70;;;;;;4985816;28;20742;-51
2021/10/18 05:36:05;;;;;;;10.82;8.88;;;10.90;59.70;;;;;;4982631;28;20364;-52
2021/10/18 05:38:30;;;;;;;10.02;7.57;;;11.00;59.80;;;;;;4977643;28;20073;-50
2021/10/18 05:40:56;;;;;;;10.48;7.95;;;11.00;59.70;;;;;;4977550;28;20030;-54
2021/10/18 05:43:22;;;;;;;10.45;7.80;;;11.00;59.60;;;;;;4975096;28;20046;-53
2021/10/18 05:45:47;;;;;;;10.55;6.68;;;11.10;59.50;;;;;;4979135;28;20035;-51
2021/10/18 05:48:15;;;;;;;10.20;7.80;;;11.10;59.40;;;;;;4982429;28;20034;-50
2021/10/18 05:50:44;;;;;;;8.98;6.72;;;11.10;59.40;;;;;;4975426;28;20080;-52
2021/10/18 05:53:14;;;;;;;9.57;6.93;;;11.20;59.50;;;;;;4984089;28;20475;-51
2021/10/18 05:55:40;;;;;;;9.60;6.80;;;11.20;59.40;;;;;;4984537;28;20142;-55
2021/10/18 05:58:08;;;;;;;10.20;7.90;;;11.20;59.40;;;;;;4982036;28;20042;-51
2021/10/18 06:00:39;;;;;;;8.63;6.50;;;11.20;59.30;;;;;;4974257;28;20034;-51
2021/10/18 06:03:05;;;;;;;10.68;6.82;;;11.20;59.20;;;;;;4979662;28;20041;-54
2021/10/18 06:05:32;;;;;;;8.98;6.13;;;11.20;59.20;;;;;;4978910;28;20109;-51
2021/10/18 06:08:07;;;;;;;10.77;7.07;;;11.20;59.30;;;;;;4977510;28;20479;-54
2021/10/18 06:10:34;;;;;;;8.38;6.25;;;11.30;59.30;;;;;;4979514;28;20035;-53
2021/10/18 06:12:59;;;;;;;8.88;6.55;;;11.30;59.30;;;;;;4973404;28;20117;-54
2021/10/18 06:15:25;;;;;;;9.98;6.75;;;11.40;59.30;;;;;;4979936;28;20037;-53
2021/10/18 06:17:51;;;;;;;9.93;7.03;;;11.40;59.30;;;;;;4978613;28;20122;-56
2021/10/18 06:20:19;;;;;;;10.70;6.75;;;11.40;59.00;;;;;;4980464;28;20038;-53
2021/10/18 06:22:45;;;;;;;10.15;6.80;;;11.50;59.10;;;;;;4979078;28;20088;-55
2021/10/18 06:25:11;;;;;;;8.02;7.03;;;11.50;58.90;;;;;;4972243;28;20046;-54
2021/10/18 06:27:37;;;;;;;7.80;6.15;;;11.50;58.90;;;;;;4975583;28;20026;-53
2021/10/18 06:30:04;;;;;;;9.07;7.00;;;11.50;58.90;;;;;;4980094;28;20120;-54
2021/10/18 06:32:30;;;;;;;8.65;6.20;;;11.50;58.70;;;;;;4971256;28;20031;-53
2021/10/18 06:34:55;;;;;;;8.65;6.53;;;11.60;59.10;;;;;;4980388;28;20073;-53
2021/10/18 06:37:21;;;;;;;8.32;6.10;;;11.60;59.00;;;;;;4974080;28;20030;-54
2021/10/18 06:39:47;;;;;;;10.70;6.53;;;11.60;58.80;;;;;;4971073;28;20111;-54
2021/10/18 06:42:12;;;;;;;8.00;5.85;;;11.70;58.90;;;;;;4969427;28;20042;-54
2021/10/18 06:44:40;;;;;;;10.05;7.05;;;11.80;58.80;;;;;;4963413;28;20062;-54
2021/10/18 06:47:06;;;;;;;9.65;6.70;;;11.90;58.60;;;;;;4962273;28;20044;-54
2021/10/18 06:49:33;;;;;;;7.45;5.72;;;11.90;58.40;;;;;;4955671;28;21086;-54
2021/10/18 06:51:59;;;;;;;7.57;5.10;;;12.00;58.30;;;;;;4963781;28;20034;-55
2021/10/18 06:54:25;;;;;;;8.70;6.22;;;12.00;58.20;;;;;;4968786;28;20045;-53
2021/10/18 06:56:52;;;;;;;9.45;6.72;;;12.00;58.20;;;;;;4966474;28;20964;-54
2021/10/18 06:59:18;;;;;;;7.03;5.80;;;12.00;58.10;;;;;;4962008;28;20736;-53
2021/10/18 07:01:44;;;;;;;9.10;6.18;;;12.10;58.20;;;;;;4962971;28;20038;-54
2021/10/18 07:04:09;;;;;;;8.13;5.78;;;12.10;58.10;;;;;;4962986;28;20038;-55
2021/10/18 07:06:36;;;;;;;6.60;5.20;;;12.20;58.00;;;;;;4960600;28;20515;-55
2021/10/18 07:09:02;;;;;;;7.63;5.80;;;12.20;58.00;;;;;;4959670;28;20080;-55
2021/10/18 07:11:28;;;;;;;8.60;5.93;;;12.30;58.10;;;;;;4964782;28;20036;-53
2021/10/18 07:13:54;;;;;;;8.05;6.13;;;12.30;58.60;;;;;;4958132;28;20034;-55
2021/10/18 07:16:20;;;;;;;6.95;5.40;;;12.30;57.70;;;;;;4958319;28;20030;-57
2021/10/18 07:18:46;;;;;;;7.25;6.07;;;12.40;57.80;;;;;;4962487;28;20037;-53
2021/10/18 07:21:12;;;;;;;11.50;7.72;;;12.40;57.60;;;;;;4966124;28;20091;-55
2021/10/18 07:23:38;;;;;;;11.90;7.43;;;12.50;58.10;;;;;;4960517;28;20045;-55
2021/10/18 07:26:07;;;;;;;8.45;6.07;;;12.60;57.50;;;;;;4962449;28;20478;-55
2021/10/18 07:28:33;;;;;;;9.45;5.80;;;12.60;57.50;;;;;;4963745;28;20049;-55
2021/10/18 07:31:00;;;;;;;8.88;7.22;;;12.60;57.30;;;;;;4964019;28;20034;-56
2021/10/18 07:33:25;;;;;;;8.23;5.80;;;12.70;57.30;;;;;;4962276;28;20161;-58
2021/10/18 07:35:54;;;;;;;8.55;5.60;;;12.70;57.30;;;;;;4962435;28;20040;-56
2021/10/18 07:38:23;;;;;;;7.45;5.82;;;12.70;57.10;;;;;;4963545;28;20122;-56
2021/10/18 07:40:49;;;;;;;8.13;5.60;;;12.70;57.10;;;;;;4966715;28;20406;-56
2021/10/18 07:43:16;;;;;;;8.48;5.93;;;12.80;57.10;;;;;;4962713;28;20031;-57
2021/10/18 07:45:42;;;;;;;10.07;5.75;;;12.90;57.10;;;;;;4964528;28;20034;-56
2021/10/18 07:48:08;;;;;;;7.07;5.65;;;13.00;56.90;;;;;;4962291;28;20035;-57
2021/10/18 07:50:33;;;;;;;7.78;5.72;;;13.10;57.00;;;;;;4962001;28;20042;-56
2021/10/18 07:52:59;;;;;;;7.80;5.60;;;13.20;56.70;;;;;;4963547;28;20034;-54
2021/10/18 07:55:28;;;;;;;9.63;5.93;;;13.20;56.60;;;;;;4965739;28;20133;-56
2021/10/18 07:57:56;;;;;;;7.40;5.82;;;13.30;56.40;;;;;;4966339;28;20042;-56
2021/10/18 08:00:23;;;;;;;8.77;5.97;;;13.30;56.00;;;;;;4968615;28;20027;-55
2021/10/18 08:02:48;;;;;;;7.18;5.10;;;13.40;56.00;;;;;;4966840;28;20037;-57
2021/10/18 08:05:17;;;;;;;8.80;5.25;;;13.40;56.00;;;;;;4965270;28;20042;-55
2021/10/18 08:07:51;;;;;;;7.05;5.00;;;13.40;55.70;;;;;;4968124;28;20026;-57
2021/10/18 08:10:24;;;;;;;6.75;5.18;;;13.50;55.70;;;;;;4965197;28;20313;-56
2021/10/18 08:12:57;;;;;;;7.70;5.10;;;13.50;55.70;;;;;;4966263;28;20077;-57
2021/10/18 08:15:26;;;;;;;7.15;4.85;;;13.50;55.70;;;;;;4966869;28;20057;-57
2021/10/18 08:17:52;;;;;;;9.68;5.60;;;13.50;55.50;;;;;;4970597;28;20030;-56
2021/10/18 08:20:19;;;;;;;7.90;5.53;;;13.60;55.60;;;;;;4973357;28;20018;-57
2021/10/18 08:22:49;;;;;;;6.07;4.60;;;13.70;55.50;;;;;;4963812;28;20014;-57
2021/10/18 08:25:15;;;;;;;6.80;4.73;;;13.70;55.40;;;;;;4964109;28;20041;-58
2021/10/18 08:27:41;;;;;;;7.97;4.80;;;13.80;55.20;;;;;;4964055;28;20030;-56
2021/10/18 08:30:08;;;;;;;7.50;5.00;;;13.80;55.30;;;;;;4970260;28;20029;-56
2021/10/18 08:32:34;;;;;;;5.75;4.63;;;13.90;55.10;;;;;;4969354;28;20902;-56
2021/10/18 08:35:00;;;;;;;7.35;5.05;;;13.90;54.90;;;;;;4976253;28;20481;-56
2021/10/18 08:40:11;;;;;;;6.22;4.45;;;13.90;54.80;;;;;;4968893;28;20390;-53
2021/10/18 08:42:55;;;;;;;6.90;4.60;;;14.00;54.80;;;;;;4967379;28;20076;-56
2021/10/18 08:45:22;;;;;;;5.95;4.05;;;14.00;54.90;;;;;;4959606;28;20494;-55
2021/10/18 08:47:49;;;;;;;6.75;4.15;;;14.10;55.00;;;;;;4959605;28;20053;-55
2021/10/18 08:50:15;;;;;;;6.90;4.13;;;14.10;54.90;;;;;;4964809;28;20034;-57
2021/10/18 08:52:42;;;;;;;6.53;4.13;;;14.20;54.80;;;;;;4963048;28;20035;-55
2021/10/18 08:55:08;;;;;;;5.45;3.85;;;14.20;54.80;;;;;;4956031;28;20475;-57
2021/10/18 08:57:34;;;;;;;6.50;4.32;;;14.30;54.80;;;;;;4955848;28;20540;-56
2021/10/18 09:00:00;;;;;;;6.13;4.10;;;14.40;54.60;;;;;;4958102;28;20030;-57
2021/10/18 09:02:39;;;;;;;5.70;4.35;;;14.40;54.60;;;;;;4961547;28;21845;-56
2021/10/18 09:05:07;;;;;;;7.13;4.13;;;14.50;54.50;;;;;;4970092;28;20762;-57
2021/10/18 09:07:37;;;;;;;7.55;4.35;;;14.60;54.50;;;;;;4970051;28;20034;-54
2021/10/18 09:10:13;;;;;;;5.68;4.13;;;14.60;54.30;;;;;;4968610;28;20038;-57
2021/10/18 09:12:40;;;;;;;6.47;4.40;;;14.70;54.20;;;;;;4970599;28;20494;-55
2021/10/18 09:15:23;;;;;;;6.07;4.30;;;14.80;54.00;;;;;;4965773;28;20038;-56
2021/10/18 09:17:59;;;;;;;5.88;4.03;;;14.80;53.80;;;;;;4967016;28;20483;-56
2021/10/18 09:20:35;;;;;;;5.60;4.18;;;14.80;54.00;;;;;;4972699;28;20070;-57
2021/10/18 09:23:25;;;;;;;6.80;4.80;;;14.80;53.90;;;;;;4966025;28;20031;-55
2021/10/18 09:26:01;;;;;;;7.68;5.10;;;14.90;53.70;;;;;;4966057;28;20030;-57
2021/10/18 09:28:28;;;;;;;9.65;5.20;;;14.80;53.90;;;;;;4971627;28;20928;-56
2021/10/18 09:30:54;;;;;;;7.70;4.80;;;14.90;53.80;;;;;;4964269;28;20030;-54
2021/10/18 09:33:28;;;;;;;6.43;4.40;;;14.90;53.80;;;;;;4965932;28;20026;-56
2021/10/18 09:35:55;;;;;;;6.65;4.53;;;14.90;53.70;;;;;;4963583;28;21712;-57
2021/10/18 09:38:21;;;;;;;9.25;5.40;;;14.90;53.70;;;;;;4956492;28;20034;-57
2021/10/18 09:40:54;;;;;;;6.20;4.72;;;14.90;53.70;;;;;;4963894;28;20050;-56
2021/10/18 09:46:08;;;;;;;6.32;4.63;;;14.80;53.60;;;;;;4969846;28;20038;-57
2021/10/18 10:56:19;;;;;;;8.10;5.47;;;14.00;55.20;;;;;;4964741;28;20065;-55
2021/10/18 10:58:52;;;;;;;7.13;5.47;;;13.90;55.30;;;;;;4966258;28;20054;-54
2021/10/18 11:01:43;;;;;;;7.05;4.80;;;13.90;55.50;;;;;;4955806;28;20038;-55
2021/10/18 11:04:39;;;;;;;7.20;5.10;;;13.90;55.60;;;;;;4975456;28;20030;-54
2021/10/18 11:07:11;;;;;;;5.70;5.03;;;13.90;55.70;;;;;;4933415;28;20096;-55
2021/10/18 11:09:53;;;;;;;8.50;6.03;;;13.90;55.70;;;;;;4972778;28;20031;-55
2021/10/18 11:12:23;;;;;;;8.00;5.93;;;13.90;55.70;;;;;;4965467;28;20165;-55
2021/10/18 11:15:03;;;;;;;7.72;5.55;;;13.80;55.70;;;;;;4971702;28;20157;-54
2021/10/18 11:17:32;;;;;;;7.68;5.18;;;13.80;55.70;;;;;;4963844;28;20042;-55
2021/10/18 11:20:01;;;;;;;7.40;5.75;;;13.80;56.40;;;;;;4971780;28;20027;-56
2021/10/18 11:22:39;;;;;;;6.88;4.85;;;13.80;55.90;;;;;;4974583;28;20031;-56
2021/10/18 11:25:10;;;;;;;6.25;5.20;;;13.80;55.80;;;;;;4968591;28;20030;-55
2021/10/18 11:27:38;;;;;;;8.63;5.15;;;13.80;55.90;;;;;;4971089;28;20801;-55
2021/10/18 11:30:15;;;;;;;7.13;4.85;;;13.80;56.00;;;;;;4975757;28;20117;-56
2021/10/18 11:32:42;;;;;;;7.50;5.50;;;13.80;56.00;;;;;;4974592;28;20038;-55
2021/10/18 11:35:14;;;;;;;6.78;5.18;;;13.80;56.10;;;;;;4973881;28;20487;-55
2021/10/18 11:37:56;;;;;;;6.35;4.90;;;13.90;56.00;;;;;;4975279;28;20033;-55
2021/10/18 11:40:28;;;;;;;6.55;4.45;;;13.90;55.90;;;;;;4977095;28;20534;-55
2021/10/18 11:43:00;;;;;;;9.13;5.60;;;13.90;56.00;;;;;;4978193;28;20015;-55
2021/10/18 11:45:33;;;;;;;7.72;5.55;;;13.90;55.90;;;;;;4975721;28;20039;-53
2021/10/18 11:48:13;;;;;;;7.85;5.38;;;14.00;56.00;;;;;;4970867;28;20589;-56
2021/10/18 11:50:44;;;;;;;7.28;4.68;;;14.00;55.80;;;;;;4970242;28;20487;-55
2021/10/18 11:53:20;;;;;;;6.78;4.90;;;14.00;55.70;;;;;;4977480;28;20564;-53
2021/10/18 11:55:49;;;;;;;6.18;5.03;;;14.00;55.80;;;;;;4974490;28;20168;-55
2021/10/18 11:58:25;;;;;;;8.27;5.15;;;14.00;55.70;;;;;;4973879;28;20034;-52
2021/10/18 12:00:58;;;;;;;7.15;4.95;;;14.10;55.60;;;;;;4973313;28;20033;-53
2021/10/18 12:03:24;;;;;;;7.28;4.90;;;14.00;55.40;;;;;;4966593;28;20042;-54
2021/10/18 12:05:52;;;;;;;5.80;4.75;;;14.00;55.40;;;;;;4966832;28;20052;-52
2021/10/18 12:08:20;;;;;;;6.57;4.80;;;13.90;55.50;;;;;;4961638;28;20039;-52
2021/10/18 12:10:51;;;;;;;7.03;5.32;;;13.90;55.60;;;;;;4965742;28;20050;-55
2021/10/18 12:13:31;;;;;;;5.70;4.70;;;13.90;55.70;;;;;;4975259;28;20034;-55
2021/10/18 12:16:19;;;;;;;6.15;4.60;;;13.90;55.80;;;;;;4968537;28;20038;-53
2021/10/18 12:18:59;;;;;;;7.25;5.20;;;13.90;56.00;;;;;;4968187;28;20081;-53
2021/10/18 12:21:31;;;;;;;6.53;5.25;;;13.90;56.00;;;;;;4971271;28;20034;-55
2021/10/18 12:24:02;;;;;;;9.07;5.55;;;13.90;56.00;;;;;;4975650;28;20030;-52
2021/10/18 12:26:31;;;;;;;7.97;5.30;;;13.90;56.00;;;;;;4970231;28;20077;-55
2021/10/18 12:29:03;;;;;;;7.28;5.68;;;13.90;55.90;;;;;;4974095;28;20038;-54
2021/10/18 12:31:36;;;;;;;8.82;6.00;;;13.90;56.00;;;;;;4969569;28;20034;-55
2021/10/18 12:34:23;;;;;;;7.85;6.57;;;13.80;55.90;;;;;;4971848;28;20086;-57
2021/10/18 12:37:06;;;;;;;9.75;7.05;;;13.80;55.70;;;;;;4967361;28;20037;-53
2021/10/18 12:39:50;;;;;;;7.95;6.00;;;13.80;55.80;;;;;;4967877;28;20042;-55
2021/10/18 12:42:24;;;;;;;8.48;7.05;;;13.80;55.80;;;;;;4971895;28;20614;-52
2021/10/18 12:45:01;;;;;;;8.93;6.72;;;13.80;55.80;;;;;;4977245;28;20394;-56
2021/10/18 12:47:27;;;;;;;10.23;7.15;;;13.70;55.80;;;;;;4971441;28;20854;-53
2021/10/18 12:50:18;;;;;;;7.95;6.05;;;13.70;55.90;;;;;;4970640;28;20038;-54
2021/10/18 12:53:01;;;;;;;9.75;7.05;;;13.70;56.00;;;;;;4967536;28;20034;-55
2021/10/18 12:55:33;;;;;;;9.18;6.43;;;13.70;56.00;;;;;;4969919;28;20052;-54
2021/10/18 12:58:07;;;;;;;9.18;7.43;;;13.70;56.00;;;;;;4960650;28;20090;-56
2021/10/18 13:00:40;;;;;;;10.25;7.25;;;13.70;56.10;;;;;;4963937;28;20112;-53
2021/10/18 13:03:08;;;;;;;10.13;7.68;;;13.70;56.10;;;;;;4972780;28;20045;-55
2021/10/18 13:05:38;;;;;;;10.45;7.00;;;13.70;56.20;;;;;;4972320;28;20113;-53
2021/10/18 13:08:04;;;;;;;9.43;6.75;;;13.70;56.10;;;;;;4969061;28;20888;-52
2021/10/18 13:10:35;;;;;;;9.02;7.30;;;13.70;56.10;;;;;;4970422;28;20125;-52
2021/10/18 13:13:05;;;;;;;;;;;13.70;56.10;;;;;;4966877;28;20498;-55
2021/10/18 13:15:31;;;;;;;8.05;6.18;;;13.70;56.10;;;;;;4968913;28;19972;-55
2021/10/18 13:17:57;;;;;;;10.35;7.28;;;13.70;56.20;;;;;;4978157;28;20088;-53
2021/10/18 13:20:25;;;;;;;10.07;7.22;;;13.70;56.10;;;;;;4977834;28;20763;-55
2021/10/18 13:22:53;;;;;;;9.15;6.70;;;13.70;56.30;;;;;;4972752;28;20049;-56
2021/10/18 13:25:21;;;;;;;9.77;7.80;;;13.70;56.20;;;;;;4973912;28;20076;-56
2021/10/18 13:27:47;;;;;;;10.05;5.82;;;13.70;56.30;;;;;;4970137;28;20149;-55
2021/10/18 13:30:14;;;;;;;8.60;6.78;;;13.70;56.30;;;;;;4964346;28;20061;-54
2021/10/18 13:32:41;;;;;;;10.60;7.07;;;13.80;56.20;;;;;;4969378;28;20338;-54
2021/10/18 13:35:08;;;;;;;9.40;6.90;;;13.80;56.20;;;;;;4965189;28;20030;-55
2021/10/18 13:37:35;;;;;;;9.20;7.03;;;13.80;56.20;;;;;;4969131;28;20065;-54
2021/10/18 13:40:01;;;;;;;12.70;7.28;;;13.70;56.00;;;;;;4964253;28;20050;-53
2021/10/18 13:42:29;;;;;;;10.30;7.30;;;13.70;56.00;;;;;;4962286;28;20126;-55
2021/10/18 13:44:55;;;;;;;12.60;7.45;;;13.70;56.00;;;;;;4965968;28;20042;-54
2021/10/18 13:47:21;;;;;;;9.60;6.47;;;13.70;56.10;;;;;;4967076;28;20034;-55
2021/10/18 13:49:47;;;;;;;9.85;7.20;;;13.70;56.10;;;;;;4965802;28;20045;-55
2021/10/18 13:52:12;;;;;;;8.00;6.60;;;13.70;56.90;;;;;;4966189;28;20082;-55
2021/10/18 13:54:38;;;;;;;10.43;7.22;;;13.70;56.40;;;;;;4966543;28;20565;-53
2021/10/18 13:57:04;;;;;;;11.32;7.30;;;13.70;56.40;;;;;;4967541;28;20125;-56
2021/10/18 13:59:30;;;;;;;9.85;7.85;;;13.70;56.30;;;;;;4970683;28;20041;-54
2021/10/18 14:01:55;;;;;;;10.38;7.03;;;13.70;56.40;;;;;;4969246;28;20030;-56
2021/10/18 14:04:21;;;;;;;8.90;6.50;;;13.70;56.30;;;;;;4971202;28;20125;-55